Islander Express — WCJ6211 — position and weather

sailwx.info

Track history (hours):
 
Tides and Currents Weather Stations Pressure Air Temp Water Temp Dewpoint Dewpoint Depression Visibility Wind Speed Wind Dir Waves Ship Positions

Islander Express

Owner: RGWT INC, Long Beach, CA. More information available from US FCC via Universal Licensing System and Coast Guard Vessel Documentation Center.

Last reported at 2018-Feb-21 02:57 UTC. Time now 2018-Feb-21 03:43 UTC.
Position N 33°28' W 117°42'.

Length 37 m; draft 1 m.

Type: High speed craft. MMSI: 366943970.

Date/timePositionNaut miles runAvg speedWind from/ knotsBaromVisibWave heightAir tempDewpointWater temp
2018-Feb-21 02:57N 33°28' W 117°42'0 0.0
2018-Feb-21 02:25N 33°28' W 117°42'0 0.0
2018-Feb-21 01:59N 33°28' W 117°42'612.1
2018-Feb-21 01:28N 33°26' W 117°49'6 2.1
2018-Feb-20 22:31N 33°27' W 117°42'0 6.9
2018-Feb-20 22:30N 33°27' W 117°42'0 0.0
2018-Feb-20 21:03N 33°27' W 117°42'0 9.1
2018-Feb-20 21:00N 33°27' W 117°42'1 0.2
2018-Feb-20 17:52N 33°27' W 117°42'1 2.6
2018-Feb-20 17:28N 33°28' W 117°42'0 0.0
2018-Feb-20 17:00N 33°28' W 117°42'0 0.0
2018-Feb-20 16:29N 33°28' W 117°42'0 0.0
2018-Feb-19 22:51N 33°28' W 117°42'0 0.0
2018-Feb-19 22:27N 33°28' W 117°42'5 8.9
2018-Feb-19 21:53N 33°25' W 117°47'4 1.1
2018-Feb-19 17:58N 33°27' W 117°42'1 1.6
2018-Feb-19 17:24N 33°28' W 117°42'0 0.0
2018-Feb-19 02:40N 33°28' W 117°42'0 0.0
2018-Feb-19 02:25N 33°28' W 117°42'0 0.0
2018-Feb-19 02:00N 33°28' W 117°42'1 0.3
2018-Feb-18 22:39N 33°27' W 117°42'1 6.1
2018-Feb-18 22:29N 33°28' W 117°42'0 0.0
2018-Feb-18 22:01N 33°28' W 117°42'0 0.0
2018-Feb-18 21:30N 33°28' W 117°42'1 1.8
2018-Feb-18 21:00N 33°27' W 117°42'2 0.6
2018-Feb-18 17:57N 33°27' W 117°44'3 5.8
2018-Feb-18 17:30N 33°28' W 117°42'0 0.0
2018-Feb-18 17:00N 33°28' W 117°42'0 0.0
2018-Feb-18 16:30N 33°28' W 117°42'0 0.0
2018-Feb-18 16:00N 33°28' W 117°42'0 0.0
2018-Feb-18 03:20N 33°28' W 117°42'0 0.0
2018-Feb-18 03:00N 33°28' W 117°42'0 0.0
2018-Feb-18 02:29N 33°28' W 117°42'0 0.0
2018-Feb-18 02:00N 33°28' W 117°42'815.6
2018-Feb-18 01:30N 33°25' W 117°50'1627.0
2018-Feb-18 00:56N 33°22' W 118°09'7 7.1
2018-Feb-17 23:55N 33°21' W 118°17'1121.1
2018-Feb-17 23:24N 33°22' W 118°04'1026.7
2018-Feb-17 23:01N 33°24' W 117°52'918.7
2018-Feb-17 22:30N 33°28' W 117°42'0 0.0
2018-Feb-17 22:00N 33°28' W 117°42'0 0.0
2018-Feb-17 21:30N 33°28' W 117°42'2 3.3
2018-Feb-17 21:01N 33°26' W 117°43'13 5.2
2018-Feb-17 18:26N 33°24' W 117°59'1127.0
2018-Feb-17 18:00N 33°26' W 117°45'3 6.7
2018-Feb-17 17:30N 33°28' W 117°42'0 0.0
2018-Feb-17 16:59N 33°28' W 117°42'0 0.1
2018-Feb-17 16:30N 33°28' W 117°41'0 0.1
2018-Feb-17 16:00N 33°28' W 117°42'0 0.0
2018-Feb-17 02:48N 33°28' W 117°42'0 0.0
2018-Feb-17 02:25N 33°28' W 117°42'0 0.0
2018-Feb-17 02:00N 33°28' W 117°42'4 9.1
2018-Feb-17 01:31N 33°26' W 117°46'1 0.3
2018-Feb-16 22:43N 33°26' W 117°45'416.5
2018-Feb-16 22:30N 33°28' W 117°42'0 0.0
2018-Feb-16 22:00N 33°28' W 117°42'0 0.0
2018-Feb-16 21:31N 33°28' W 117°42'1 1.1
2018-Feb-16 21:00N 33°27' W 117°42'7 2.4
2018-Feb-16 18:08N 33°25' W 117°50'628.0
2018-Feb-16 17:54N 33°27' W 117°42'1 2.0
2018-Feb-16 17:26N 33°28' W 117°42'0 0.0
2018-Feb-16 17:00N 33°28' W 117°42'0 0.0
2018-Feb-16 16:30N 33°28' W 117°42'0 0.0
2018-Feb-16 16:00N 33°28' W 117°42'0 0.0
2018-Feb-16 02:56N 33°28' W 117°42'0 0.0
2018-Feb-16 02:30N 33°28' W 117°42'0 0.0
2018-Feb-16 02:00N 33°28' W 117°42'4 8.0
2018-Feb-16 01:30N 33°26' W 117°46'1428.2
2018-Feb-16 01:00N 33°24' W 118°03'1414.3
2018-Feb-16 00:00N 33°21' W 118°20'0 0.0
2018-Feb-15 23:29N 33°21' W 118°20'1 1.5
2018-Feb-15 22:35N 33°23' W 118°20'229.3
2018-Feb-15 22:30N 33°25' W 118°19'1429.1
2018-Feb-15 22:01N 33°39' W 118°16'612.0
2018-Feb-15 21:30N 33°45' W 118°16'0 0.0
2018-Feb-15 21:00N 33°45' W 118°16'0 0.0
2018-Feb-15 20:30N 33°45' W 118°16'0 0.0
2018-Feb-15 20:00N 33°45' W 118°16'0 0.0
2018-Feb-15 19:30N 33°45' W 118°16'0 0.0
2018-Feb-15 19:00N 33°45' W 118°16'0 0.2
2018-Feb-15 18:30N 33°45' W 118°16'0 0.2
2018-Feb-15 18:00N 33°45' W 118°16'0 0.0
2018-Feb-15 17:31N 33°45' W 118°16'0 0.0
2018-Feb-15 17:01N 33°45' W 118°16'0 0.0
2018-Feb-15 16:31N 33°45' W 118°16'0 0.0
2018-Feb-15 16:00N 33°45' W 118°16'0 0.0
2018-Feb-15 15:31N 33°45' W 118°16'0 0.0
2018-Feb-15 04:23N 33°45' W 118°16'0 0.1
2018-Feb-15 04:00N 33°45' W 118°16'0 0.0
2018-Feb-15 03:30N 33°45' W 118°16'0 0.0
2018-Feb-15 03:00N 33°45' W 118°16'1 1.8
2018-Feb-15 02:30N 33°44' W 118°16'6 1.8
2018-Feb-14 23:25N 33°39' W 118°18'614.2
2018-Feb-14 23:00N 33°44' W 118°17'1 1.1
2018-Feb-14 22:30N 33°45' W 118°16'0 0.0
2018-Feb-14 22:00N 33°45' W 118°16'0 0.0
2018-Feb-14 21:30N 33°45' W 118°16'0 0.0
2018-Feb-14 21:00N 33°45' W 118°16'0 0.6
2018-Feb-14 20:31N 33°45' W 118°17'8 2.6
2018-Feb-14 17:28N 33°37' W 118°16'817.2
2018-Feb-14 17:00N 33°45' W 118°16'0 0.2
2018-Feb-14 16:30N 33°45' W 118°16'0 0.0
2018-Feb-14 16:00N 33°45' W 118°16'0 0.0
2018-Feb-14 15:30N 33°45' W 118°16'0 0.0
2018-Feb-14 15:00N 33°45' W 118°16'0 0.1
2018-Feb-14 14:30N 33°45' W 118°16'0 0.1
2018-Feb-14 14:00N 33°45' W 118°16'0 0.0
2018-Feb-13 04:01N 33°45' W 118°16'0 0.0
2018-Feb-13 04:01N 33°45' W 118°16'0 0.0
2018-Feb-13 03:31N 33°45' W 118°16'0 0.0
2018-Feb-13 03:01N 33°45' W 118°16'1 1.5
2018-Feb-13 02:31N 33°44' W 118°17'6 1.8
2018-Feb-12 23:23N 33°39' W 118°17'615.1
2018-Feb-12 23:00N 33°44' W 118°17'1 1.3
2018-Feb-12 22:30N 33°45' W 118°16'0 0.0
2018-Feb-12 22:01N 33°45' W 118°16'0 0.0
2018-Feb-12 21:30N 33°45' W 118°16'0 0.0
2018-Feb-12 21:00N 33°45' W 118°16'1 2.5
2018-Feb-12 20:30N 33°44' W 118°16'6 2.2
2018-Feb-12 17:33N 33°37' W 118°15'228.8
2018-Feb-12 17:30N 33°39' W 118°15'6 0.4
2018-Feb-12 02:55N 33°45' W 118°16'1 2.8
2018-Feb-12 02:30N 33°44' W 118°16'20 7.7
2018-Feb-11 23:56N 33°27' W 118°29'1527.3
2018-Feb-11 23:23N 33°39' W 118°18'614.7
2018-Feb-11 23:00N 33°44' W 118°17'1 1.1
2018-Feb-11 22:30N 33°45' W 118°16'0 0.0
2018-Feb-11 22:00N 33°45' W 118°16'0 0.0
2018-Feb-11 21:30N 33°45' W 118°16'0 0.0
2018-Feb-11 21:00N 33°45' W 118°16'1 1.6
2018-Feb-11 20:30N 33°44' W 118°17'916.2
2018-Feb-11 19:59N 33°36' W 118°20'1212.3
2018-Feb-11 18:59N 33°27' W 118°30'1011.4
2018-Feb-11 18:05N 33°22' W 118°19'1427.5
2018-Feb-11 17:34N 33°36' W 118°16'227.6
2018-Feb-11 17:30N 33°38' W 118°15'714.6
2018-Feb-11 17:01N 33°45' W 118°16'0 0.0
2018-Feb-11 16:30N 33°45' W 118°16'0 0.0
2018-Feb-11 16:00N 33°45' W 118°16'0 0.1
2018-Feb-11 15:31N 33°45' W 118°16'0 0.1
2018-Feb-11 15:01N 33°45' W 118°16'0 0.0
2018-Feb-11 14:30N 33°45' W 118°16'0 0.0
2018-Feb-11 14:00N 33°45' W 118°16'0 0.0
2018-Feb-11 13:31N 33°45' W 118°16'  
Track history (hours):
 
Tides and Currents Weather Stations Pressure Air Temp Water Temp Dewpoint Dewpoint Depression Visibility Wind Speed Wind Dir Waves Ship Positions

Islander Express

Owner: RGWT INC, Long Beach, CA. More information available from US FCC via Universal Licensing System and Coast Guard Vessel Documentation Center.

Last reported at 2018-Feb-21 02:57 UTC. Time now 2018-Feb-21 03:43 UTC.
Position N 33°28' W 117°42'.

Length 37 m; draft 1 m.

Type: High speed craft. MMSI: 366943970.

Date/timePositionNaut miles runAvg speedWind from/ knotsBaromVisibWave heightAir tempDewpointWater temp
2018-Feb-21 02:57N 33°28' W 117°42'0 0.0
2018-Feb-21 02:25N 33°28' W 117°42'0 0.0
2018-Feb-21 01:59N 33°28' W 117°42'612.1
2018-Feb-21 01:28N 33°26' W 117°49'6 2.1
2018-Feb-20 22:31N 33°27' W 117°42'0 6.9
2018-Feb-20 22:30N 33°27' W 117°42'0 0.0
2018-Feb-20 21:03N 33°27' W 117°42'0 9.1
2018-Feb-20 21:00N 33°27' W 117°42'1 0.2
2018-Feb-20 17:52N 33°27' W 117°42'1 2.6
2018-Feb-20 17:28N 33°28' W 117°42'0 0.0
2018-Feb-20 17:00N 33°28' W 117°42'0 0.0
2018-Feb-20 16:29N 33°28' W 117°42'0 0.0
2018-Feb-19 22:51N 33°28' W 117°42'0 0.0
2018-Feb-19 22:27N 33°28' W 117°42'5 8.9
2018-Feb-19 21:53N 33°25' W 117°47'4 1.1
2018-Feb-19 17:58N 33°27' W 117°42'1 1.6
2018-Feb-19 17:24N 33°28' W 117°42'0 0.0
2018-Feb-19 02:40N 33°28' W 117°42'0 0.0
2018-Feb-19 02:25N 33°28' W 117°42'0 0.0
2018-Feb-19 02:00N 33°28' W 117°42'1 0.3
2018-Feb-18 22:39N 33°27' W 117°42'1 6.1
2018-Feb-18 22:29N 33°28' W 117°42'0 0.0
2018-Feb-18 22:01N 33°28' W 117°42'0 0.0
2018-Feb-18 21:30N 33°28' W 117°42'1 1.8
2018-Feb-18 21:00N 33°27' W 117°42'2 0.6
2018-Feb-18 17:57N 33°27' W 117°44'3 5.8
2018-Feb-18 17:30N 33°28' W 117°42'0 0.0
2018-Feb-18 17:00N 33°28' W 117°42'0 0.0
2018-Feb-18 16:30N 33°28' W 117°42'0 0.0
2018-Feb-18 16:00N 33°28' W 117°42'0 0.0
2018-Feb-18 03:20N 33°28' W 117°42'0 0.0
2018-Feb-18 03:00N 33°28' W 117°42'0 0.0
2018-Feb-18 02:29N 33°28' W 117°42'0 0.0
2018-Feb-18 02:00N 33°28' W 117°42'815.6
2018-Feb-18 01:30N 33°25' W 117°50'1627.0
2018-Feb-18 00:56N 33°22' W 118°09'7 7.1
2018-Feb-17 23:55N 33°21' W 118°17'1121.1
2018-Feb-17 23:24N 33°22' W 118°04'1026.7
2018-Feb-17 23:01N 33°24' W 117°52'918.7
2018-Feb-17 22:30N 33°28' W 117°42'0 0.0
2018-Feb-17 22:00N 33°28' W 117°42'0 0.0
2018-Feb-17 21:30N 33°28' W 117°42'2 3.3
2018-Feb-17 21:01N 33°26' W 117°43'13 5.2
2018-Feb-17 18:26N 33°24' W 117°59'1127.0
2018-Feb-17 18:00N 33°26' W 117°45'3 6.7
2018-Feb-17 17:30N 33°28' W 117°42'0 0.0
2018-Feb-17 16:59N 33°28' W 117°42'0 0.1
2018-Feb-17 16:30N 33°28' W 117°41'0 0.1
2018-Feb-17 16:00N 33°28' W 117°42'0 0.0
2018-Feb-17 02:48N 33°28' W 117°42'0 0.0
2018-Feb-17 02:25N 33°28' W 117°42'0 0.0
2018-Feb-17 02:00N 33°28' W 117°42'4 9.1
2018-Feb-17 01:31N 33°26' W 117°46'1 0.3
2018-Feb-16 22:43N 33°26' W 117°45'416.5
2018-Feb-16 22:30N 33°28' W 117°42'0 0.0
2018-Feb-16 22:00N 33°28' W 117°42'0 0.0
2018-Feb-16 21:31N 33°28' W 117°42'1 1.1
2018-Feb-16 21:00N 33°27' W 117°42'7 2.4
2018-Feb-16 18:08N 33°25' W 117°50'628.0
2018-Feb-16 17:54N 33°27' W 117°42'1 2.0
2018-Feb-16 17:26N 33°28' W 117°42'0 0.0
2018-Feb-16 17:00N 33°28' W 117°42'0 0.0
2018-Feb-16 16:30N 33°28' W 117°42'0 0.0
2018-Feb-16 16:00N 33°28' W 117°42'0 0.0
2018-Feb-16 02:56N 33°28' W 117°42'0 0.0
2018-Feb-16 02:30N 33°28' W 117°42'0 0.0
2018-Feb-16 02:00N 33°28' W 117°42'4 8.0
2018-Feb-16 01:30N 33°26' W 117°46'1428.2
2018-Feb-16 01:00N 33°24' W 118°03'1414.3
2018-Feb-16 00:00N 33°21' W 118°20'0 0.0
2018-Feb-15 23:29N 33°21' W 118°20'1 1.5
2018-Feb-15 22:35N 33°23' W 118°20'229.3
2018-Feb-15 22:30N 33°25' W 118°19'1429.1
2018-Feb-15 22:01N 33°39' W 118°16'612.0
2018-Feb-15 21:30N 33°45' W 118°16'0 0.0
2018-Feb-15 21:00N 33°45' W 118°16'0 0.0
2018-Feb-15 20:30N 33°45' W 118°16'0 0.0
2018-Feb-15 20:00N 33°45' W 118°16'0 0.0
2018-Feb-15 19:30N 33°45' W 118°16'0 0.0
2018-Feb-15 19:00N 33°45' W 118°16'0 0.2
2018-Feb-15 18:30N 33°45' W 118°16'0 0.2
2018-Feb-15 18:00N 33°45' W 118°16'0 0.0
2018-Feb-15 17:31N 33°45' W 118°16'0 0.0
2018-Feb-15 17:01N 33°45' W 118°16'0 0.0
2018-Feb-15 16:31N 33°45' W 118°16'0 0.0
2018-Feb-15 16:00N 33°45' W 118°16'0 0.0
2018-Feb-15 15:31N 33°45' W 118°16'0 0.0
2018-Feb-15 04:23N 33°45' W 118°16'0 0.1
2018-Feb-15 04:00N 33°45' W 118°16'0 0.0
2018-Feb-15 03:30N 33°45' W 118°16'0 0.0
2018-Feb-15 03:00N 33°45' W 118°16'1 1.8
2018-Feb-15 02:30N 33°44' W 118°16'6 1.8
2018-Feb-14 23:25N 33°39' W 118°18'614.2
2018-Feb-14 23:00N 33°44' W 118°17'1 1.1
2018-Feb-14 22:30N 33°45' W 118°16'0 0.0
2018-Feb-14 22:00N 33°45' W 118°16'0 0.0
2018-Feb-14 21:30N 33°45' W 118°16'0 0.0
2018-Feb-14 21:00N 33°45' W 118°16'0 0.6
2018-Feb-14 20:31N 33°45' W 118°17'8 2.6
2018-Feb-14 17:28N 33°37' W 118°16'817.2
2018-Feb-14 17:00N 33°45' W 118°16'0 0.2
2018-Feb-14 16:30N 33°45' W 118°16'0 0.0
2018-Feb-14 16:00N 33°45' W 118°16'0 0.0
2018-Feb-14 15:30N 33°45' W 118°16'0 0.0
2018-Feb-14 15:00N 33°45' W 118°16'0 0.1
2018-Feb-14 14:30N 33°45' W 118°16'0 0.1
2018-Feb-14 14:00N 33°45' W 118°16'0 0.0
2018-Feb-13 04:01N 33°45' W 118°16'0 0.0
2018-Feb-13 04:01N 33°45' W 118°16'0 0.0
2018-Feb-13 03:31N 33°45' W 118°16'0 0.0
2018-Feb-13 03:01N 33°45' W 118°16'1 1.5
2018-Feb-13 02:31N 33°44' W 118°17'6 1.8
2018-Feb-12 23:23N 33°39' W 118°17'615.1
2018-Feb-12 23:00N 33°44' W 118°17'1 1.3
2018-Feb-12 22:30N 33°45' W 118°16'0 0.0
2018-Feb-12 22:01N 33°45' W 118°16'0 0.0
2018-Feb-12 21:30N 33°45' W 118°16'0 0.0
2018-Feb-12 21:00N 33°45' W 118°16'1 2.5
2018-Feb-12 20:30N 33°44' W 118°16'6 2.2
2018-Feb-12 17:33N 33°37' W 118°15'228.8
2018-Feb-12 17:30N 33°39' W 118°15'6 0.4
2018-Feb-12 02:55N 33°45' W 118°16'1 2.8
2018-Feb-12 02:30N 33°44' W 118°16'20 7.7
2018-Feb-11 23:56N 33°27' W 118°29'1527.3
2018-Feb-11 23:23N 33°39' W 118°18'614.7
2018-Feb-11 23:00N 33°44' W 118°17'1 1.1
2018-Feb-11 22:30N 33°45' W 118°16'0 0.0
2018-Feb-11 22:00N 33°45' W 118°16'0 0.0
2018-Feb-11 21:30N 33°45' W 118°16'0 0.0
2018-Feb-11 21:00N 33°45' W 118°16'1 1.6
2018-Feb-11 20:30N 33°44' W 118°17'916.2
2018-Feb-11 19:59N 33°36' W 118°20'1212.3
2018-Feb-11 18:59N 33°27' W 118°30'1011.4
2018-Feb-11 18:05N 33°22' W 118°19'1427.5
2018-Feb-11 17:34N 33°36' W 118°16'227.6
2018-Feb-11 17:30N 33°38' W 118°15'714.6
2018-Feb-11 17:01N 33°45' W 118°16'0 0.0
2018-Feb-11 16:30N 33°45' W 118°16'0 0.0
2018-Feb-11 16:00N 33°45' W 118°16'0 0.1
2018-Feb-11 15:31N 33°45' W 118°16'0 0.1
2018-Feb-11 15:01N 33°45' W 118°16'0 0.0
2018-Feb-11 14:30N 33°45' W 118°16'0 0.0
2018-Feb-11 14:00N 33°45' W 118°16'0 0.0
2018-Feb-11 13:31N 33°45' W 118°16'  

Dump ship's entire track history